Time;durP1;ratioP1;P1;durP2;ratioP2;P2;SDS_P1;SDS_P2;PMS_P1;PMS_P2;Temp;Humidity;BMP_temperature;BMP_pressure;BME280_temperature;BME280_humidity;BME280_pressure;Samples;Min_cycle;Max_cycle;Signal;HPM_P1;HPM_P2
2022/04/19 00:00:32;;;;;;;9.00;5.53;;;;;;;9.92;65.51;101484.94;5014494;28;20022;-43
2022/04/19 00:02:57;;;;;;;8.00;5.32;;;;;;;9.77;64.51;101485.78;5013810;28;20125;-41
2022/04/19 00:05:22;;;;;;;8.30;5.72;;;;;;;9.54;65.14;101480.50;5013545;28;20520;-42
2022/04/19 00:07:48;;;;;;;9.50;6.15;;;;;;;9.48;64.44;101500.00;5013904;28;20049;-42
2022/04/19 00:10:13;;;;;;;9.05;5.78;;;;;;;9.64;63.90;101492.25;5012784;28;20040;-41
2022/04/19 00:12:38;;;;;;;15.73;5.93;;;;;;;9.64;63.26;101501.78;5013031;28;20046;-41
2022/04/19 00:15:05;;;;;;;12.57;6.30;;;;;;;9.68;63.41;101496.13;5013648;28;20029;-42
2022/04/19 00:17:30;;;;;;;8.85;6.13;;;;;;;9.43;65.00;101482.41;5013714;28;20029;-42
2022/04/19 00:19:55;;;;;;;9.40;6.20;;;;;;;9.49;64.62;101484.38;4996086;28;20072;-41
2022/04/19 00:22:21;;;;;;;9.23;6.35;;;;;;;9.42;65.38;101491.13;5013900;28;20389;-41
2022/04/19 00:24:46;;;;;;;11.00;6.60;;;;;;;9.55;66.25;101485.50;5013555;28;20030;-41
2022/04/19 00:27:12;;;;;;;9.07;6.57;;;;;;;9.53;66.37;101476.31;5013837;28;20021;-41
2022/04/19 00:29:41;;;;;;;9.20;6.55;;;;;;;9.54;66.86;101483.06;5013803;28;20022;-41
2022/04/19 00:32:10;;;;;;;9.02;6.97;;;;;;;9.46;66.60;101482.09;5013391;28;20022;-42
2022/04/19 00:34:36;;;;;;;9.98;6.90;;;;;;;9.44;67.94;101476.31;5013535;28;20480;-41
2022/04/19 00:37:02;;;;;;;9.85;6.78;;;;;;;9.40;68.56;101474.19;5013382;28;20072;-42
2022/04/19 00:39:27;;;;;;;8.73;6.80;;;;;;;9.46;68.79;101471.78;5013272;28;20103;-42
2022/04/19 00:41:52;;;;;;;10.27;7.20;;;;;;;9.51;68.35;101478.25;5013657;28;20026;-41
2022/04/19 00:44:18;;;;;;;10.30;7.10;;;;;;;9.57;69.76;101475.00;5013318;28;20550;-41
2022/04/19 00:46:43;;;;;;;14.95;7.10;;;;;;;9.57;69.00;101477.59;5013279;28;20362;-41
2022/04/19 00:49:08;;;;;;;10.43;7.15;;;;;;;9.48;69.65;101475.00;5013495;28;20030;-41
2022/04/19 00:51:35;;;;;;;9.30;7.13;;;;;;;9.48;69.67;101469.84;4995680;28;20026;-33
2022/04/19 00:54:01;;;;;;;11.07;7.40;;;;;;;9.49;69.58;101476.63;5013174;28;20033;-35
2022/04/19 00:56:29;;;;;;;11.60;7.47;;;;;;;9.45;69.27;101472.75;5011477;28;20508;-34
2022/04/19 00:58:54;;;;;;;11.40;7.50;;;;;;;9.36;69.78;101478.88;5013116;28;20084;-33
2022/04/19 01:01:20;;;;;;;13.77;7.32;;;;;;;9.25;69.94;101481.78;5013187;28;20385;-32
2022/04/19 01:03:45;;;;;;;12.32;7.38;;;;;;;9.09;70.57;101486.91;5013160;28;20017;-33
2022/04/19 01:06:10;;;;;;;12.52;7.30;;;;;;;9.14;70.54;101474.38;4995517;28;20034;-33
2022/04/19 01:08:36;;;;;;;10.55;7.20;;;;;;;9.12;70.46;101481.44;5013075;28;20568;-33
2022/04/19 01:13:45;;;;;;;10.90;7.18;;;;;;;9.16;70.32;101475.00;5013152;28;20612;-33
2022/04/19 01:16:11;;;;;;;10.98;7.30;;;;;;;9.10;70.46;101480.81;4996272;28;20077;-33
2022/04/19 01:18:36;;;;;;;11.98;6.97;;;;;;;9.08;70.04;101470.66;5013361;28;20040;-33
2022/04/19 01:21:02;;;;;;;9.55;6.90;;;;;;;8.98;70.48;101460.50;4995474;28;20033;-34
2022/04/19 01:23:29;;;;;;;10.15;7.05;;;;;;;8.99;70.40;101467.25;5013924;28;20024;-34
2022/04/19 01:25:54;;;;;;;10.25;6.47;;;;;;;8.97;69.92;101469.19;4999132;28;20083;-34
2022/04/19 01:28:20;;;;;;;10.90;6.40;;;;;;;8.88;70.22;101456.44;5016722;28;20026;-34
2022/04/19 01:30:52;;;;;;;11.52;6.43;;;;;;;8.98;70.00;101465.66;5017157;28;20022;-34
2022/04/19 01:33:18;;;;;;;8.90;6.32;;;;;;;8.88;70.20;101462.41;5016591;28;20038;-34
2022/04/19 01:35:43;;;;;;;9.52;5.78;;;;;;;8.69;70.48;101467.84;5016556;28;20180;-34
2022/04/19 01:38:08;;;;;;;9.80;6.25;;;;;;;8.62;70.53;101467.66;5016600;28;20376;-34
2022/04/19 01:40:34;;;;;;;8.85;6.00;;;;;;;8.53;71.19;101459.09;5016744;28;20026;-34
2022/04/19 01:43:02;;;;;;;9.52;5.82;;;;;;;8.58;70.54;101466.38;5015110;28;20053;-33
2022/04/19 01:45:28;;;;;;;9.13;6.10;;;;;;;8.65;70.41;101474.28;4982686;28;20030;-35
2022/04/19 01:47:55;;;;;;;9.90;6.50;;;;;;;8.72;69.93;101473.50;5016584;28;20108;-34
2022/04/19 01:50:21;;;;;;;8.00;5.80;;;;;;;8.77;70.25;101465.28;5016283;28;20029;-34
2022/04/19 01:52:49;;;;;;;9.63;6.45;;;;;;;8.80;70.89;101465.78;5016141;28;20030;-35
2022/04/19 01:55:16;;;;;;;10.38;6.45;;;;;;;8.89;69.91;101464.03;5016228;28;20080;-35
2022/04/19 01:57:43;;;;;;;12.52;7.28;;;;;;;8.76;70.62;101461.91;5016171;28;20112;-34
2022/04/19 02:00:09;;;;;;;10.95;7.80;;;;;;;8.84;71.33;101461.13;4998376;28;20029;-34
2022/04/19 02:02:35;;;;;;;12.00;8.25;;;;;;;8.80;71.35;101455.50;5016036;28;20032;-34
2022/04/19 02:05:00;;;;;;;12.73;8.75;;;;;;;8.96;71.02;101461.63;5016499;28;20104;-34
2022/04/19 02:07:26;;;;;;;13.07;8.48;;;;;;;8.88;71.45;101467.56;5015985;28;20376;-35
2022/04/19 02:09:51;;;;;;;13.43;8.68;;;;;;;8.95;71.54;101465.97;4998382;28;20515;-34
2022/04/19 02:12:16;;;;;;;13.25;9.25;;;;;;;8.96;71.46;101462.41;5014604;28;20048;-34
2022/04/19 02:14:42;;;;;;;13.75;9.45;;;;;;;8.86;72.17;101450.63;4998091;28;20054;-36
2022/04/19 02:17:09;;;;;;;13.23;8.93;;;;;;;8.92;71.55;101460.31;5015786;28;20062;-34
2022/04/19 02:19:35;;;;;;;13.82;9.45;;;;;;;8.81;72.05;101461.44;4998228;28;20025;-36
2022/04/19 02:22:00;;;;;;;14.25;9.63;;;;;;;8.91;72.07;101462.09;5015684;28;20109;-34
2022/04/19 02:24:25;;;;;;;15.23;9.52;;;;;;;8.96;71.76;101462.41;5015731;28;20097;-36
2022/04/19 02:26:50;;;;;;;13.55;9.60;;;;;;;8.91;71.64;101463.88;5015001;28;20038;-34
2022/04/19 02:29:16;;;;;;;15.25;9.52;;;;;;;8.92;71.90;101468.03;5016164;28;20484;-34
2022/04/19 02:31:41;;;;;;;15.63;9.77;;;;;;;8.88;72.22;101459.81;4997952;28;20029;-34
2022/04/19 02:34:07;;;;;;;15.40;9.95;;;;;;;8.84;71.73;101443.09;5014899;28;20165;-35
2022/04/19 02:36:32;;;;;;;13.15;9.65;;;;;;;8.86;71.27;101458.38;5015761;28;20072;-35
2022/04/19 02:38:59;;;;;;;15.38;9.95;;;;;;;8.84;71.10;101455.97;5015372;28;20061;-34
2022/04/19 02:41:25;;;;;;;17.63;10.48;;;;;;;8.86;71.60;101455.78;5015652;28;20022;-33
2022/04/19 02:43:50;;;;;;;15.95;10.10;;;;;;;8.92;70.77;101456.00;5015283;28;20465;-34
2022/04/19 02:46:15;;;;;;;14.75;10.23;;;;;;;8.93;71.25;101455.00;5015291;28;20109;-34
2022/04/19 02:48:41;;;;;;;15.40;9.73;;;;;;;8.81;69.79;101436.47;5015162;28;20026;-34
2022/04/19 02:51:06;;;;;;;15.65;9.45;;;;;;;8.84;69.83;101450.00;5015401;28;20025;-34
2022/04/19 02:53:32;;;;;;;16.60;9.77;;;;;;;8.81;69.95;101439.03;4997495;28;20370;-34
2022/04/19 02:55:59;;;;;;;15.27;9.70;;;;;;;8.83;69.48;101444.03;5015087;28;20377;-39
2022/04/19 02:58:25;;;;;;;14.27;9.50;;;;;;;8.73;69.57;101443.38;5015500;28;20029;-34
2022/04/19 03:00:50;;;;;;;14.23;9.27;;;;;;;8.70;69.08;101443.69;5014855;28;20105;-34
2022/04/19 03:03:15;;;;;;;13.57;9.55;;;;;;;8.73;69.87;101441.59;4997302;28;20060;-34
2022/04/19 03:05:41;;;;;;;13.90;9.27;;;;;;;8.68;69.73;101435.31;5014914;28;20076;-35
2022/04/19 03:08:07;;;;;;;13.60;9.20;;;;;;;8.70;69.36;101446.28;5015113;28;20021;-34
2022/04/19 03:10:33;;;;;;;13.55;9.00;;;;;;;8.60;68.09;101441.25;5014697;28;20079;-34
2022/04/19 03:12:58;;;;;;;12.85;9.07;;;;;;;8.55;68.88;101436.59;5014783;28;20488;-34
2022/04/19 03:15:23;;;;;;;14.32;9.43;;;;;;;8.61;68.50;101427.41;5014741;28;20092;-34
2022/04/19 03:17:49;;;;;;;13.98;9.02;;;;;;;8.55;68.10;101435.78;4997028;28;20455;-34
2022/04/19 03:20:15;;;;;;;13.93;8.90;;;;;;;8.52;69.57;101429.16;4997048;28;20362;-35
2022/04/19 03:28:12;;;;;;;13.07;9.32;;;;;;;8.40;69.36;101448.47;5000510;28;20091;-34
2022/04/19 03:30:37;;;;;;;12.93;9.30;;;;;;;8.37;69.43;101441.00;4997611;28;20379;-34
2022/04/19 03:33:03;;;;;;;15.30;9.48;;;;;;;8.45;69.16;101446.19;4996831;28;20044;-36
2022/04/19 03:35:29;;;;;;;13.55;9.05;;;;;;;8.39;69.46;101446.03;4996820;28;20358;-34
2022/04/19 03:37:54;;;;;;;12.43;8.75;;;;;;;8.38;69.12;101442.63;5014770;28;20026;-36
2022/04/19 03:40:19;;;;;;;13.02;9.00;;;;;;;8.33;69.94;101440.50;5014555;28;20029;-34
2022/04/19 03:42:44;;;;;;;14.75;9.20;;;;;;;8.26;70.31;101438.72;5014256;28;20384;-34
2022/04/19 03:45:11;;;;;;;17.33;9.43;;;;;;;8.25;69.28;101440.47;5014152;28;20022;-34
2022/04/19 03:47:37;;;;;;;14.93;9.40;;;;;;;8.19;68.91;101445.44;5013419;28;20022;-36
2022/04/19 03:50:04;;;;;;;12.75;9.02;;;;;;;8.18;69.95;101449.78;5014140;28;20076;-34
2022/04/19 03:52:30;;;;;;;20.85;9.27;;;;;;;8.12;70.17;101440.09;5013950;28;20367;-35
2022/04/19 03:54:56;;;;;;;13.65;9.02;;;;;;;8.17;70.38;101440.47;5014034;28;20133;-33
2022/04/19 03:57:21;;;;;;;12.95;9.13;;;;;;;8.06;69.31;101438.97;5014290;28;20029;-34
2022/04/19 03:59:46;;;;;;;13.57;8.90;;;;;;;7.93;68.51;101415.41;5012675;28;20084;-34
2022/04/19 04:02:11;;;;;;;13.20;8.88;;;;;;;8.00;68.87;101449.03;5014430;28;20034;-33
2022/04/19 04:04:37;;;;;;;13.68;8.98;;;;;;;7.93;69.07;101442.91;5013851;28;20544;-34
2022/04/19 04:07:04;;;;;;;15.27;8.88;;;;;;;7.95;70.54;101443.56;4979959;28;20029;-34
2022/04/19 04:09:32;;;;;;;13.70;8.63;;;;;;;7.93;69.76;101440.34;4996145;28;20036;-34
2022/04/19 04:12:09;;;;;;;13.43;8.82;;;;;;;7.82;70.03;101438.81;5014509;28;20026;-35
2022/04/19 04:14:35;;;;;;;11.88;8.57;;;;;;;7.80;70.23;101446.72;4992907;28;20465;-34
2022/04/19 04:17:01;;;;;;;12.48;9.05;;;;;;;7.84;71.34;101447.19;4994068;28;20393;-34
2022/04/19 04:19:26;;;;;;;13.60;9.15;;;;;;;7.75;70.47;101448.13;4994078;28;20110;-34
2022/04/19 04:21:52;;;;;;;12.70;8.95;;;;;;;7.63;70.82;101445.78;4994286;28;20462;-34
2022/04/19 04:24:17;;;;;;;15.73;8.75;;;;;;;7.58;71.35;101447.22;4994259;28;20022;-33
2022/04/19 04:26:43;;;;;;;15.18;9.35;;;;;;;7.53;70.68;101446.84;4993966;28;20092;-34
2022/04/19 04:29:08;;;;;;;15.88;9.10;;;;;;;7.53;70.68;101452.00;4992715;28;20026;-34
2022/04/19 04:31:33;;;;;;;16.25;9.30;;;;;;;7.42;70.92;101447.88;4992663;28;20109;-34
2022/04/19 04:33:59;;;;;;;12.43;8.77;;;;;;;7.44;70.39;101451.91;4992564;28;20106;-33
2022/04/19 04:36:24;;;;;;;13.98;8.95;;;;;;;7.39;70.99;101451.59;4993870;28;20022;-34
2022/04/19 04:38:50;;;;;;;12.38;8.65;;;;;;;7.47;70.93;101455.97;4992570;28;20030;-39
2022/04/19 04:41:15;;;;;;;18.92;8.73;;;;;;;7.46;71.13;101452.59;4994348;28;20030;-34
2022/04/19 04:43:40;;;;;;;14.50;9.02;;;;;;;7.42;71.00;101459.00;4976415;28;20018;-34
2022/04/19 04:51:34;;;;;;;14.50;9.13;;;;;;;7.33;72.51;101465.00;4993657;28;20096;-34
2022/04/19 04:54:00;;;;;;;13.45;8.88;;;;;;;7.39;72.13;101458.47;4993644;28;20026;-34
2022/04/19 04:56:25;;;;;;;20.25;9.50;;;;;;;7.57;71.22;101463.59;4993732;28;20465;-36
2022/04/19 04:58:50;;;;;;;14.88;8.63;;;;;;;7.56;70.88;101469.69;4997420;28;20034;-34
2022/04/19 05:01:15;;;;;;;14.60;9.38;;;;;;;7.75;70.08;101471.28;4980078;28;20560;-34
2022/04/19 05:03:41;;;;;;;13.77;8.88;;;;;;;7.88;70.54;101472.50;4996302;28;20117;-34
2022/04/19 05:06:06;;;;;;;15.07;8.48;;;;;;;7.99;70.52;101468.81;4996295;28;20385;-34
2022/04/19 05:08:31;;;;;;;16.35;9.15;;;;;;;8.06;70.45;101469.03;4997471;28;20057;-33
2022/04/19 05:10:57;;;;;;;15.40;9.32;;;;;;;8.12;70.00;101471.81;4996206;28;20088;-34
2022/04/19 05:13:22;;;;;;;17.40;9.20;;;;;;;8.09;70.26;101474.69;4995950;28;20478;-33
2022/04/19 05:15:48;;;;;;;18.10;8.82;;;;;;;8.14;70.20;101475.03;4997663;28;20030;-34
2022/04/19 05:18:14;;;;;;;13.80;8.80;;;;;;;8.24;67.67;101463.81;4996168;28;20418;-33
2022/04/19 05:20:41;;;;;;;13.63;9.05;;;;;;;8.47;67.27;101479.53;4995990;28;20481;-34
2022/04/19 05:23:06;;;;;;;13.82;8.75;;;;;;;8.47;66.82;101471.81;4995806;28;20384;-34
2022/04/19 05:25:31;;;;;;;13.85;8.93;;;;;;;8.58;66.53;101472.34;4995883;28;20113;-34
2022/04/19 05:27:57;;;;;;;15.65;9.10;;;;;;;8.59;65.30;101475.72;4997291;28;20102;-33
2022/04/19 05:30:22;;;;;;;13.75;8.70;;;;;;;8.63;65.57;101476.19;4996831;28;20081;-35
2022/04/19 05:32:47;;;;;;;15.77;9.07;;;;;;;8.70;66.47;101474.63;4996449;28;20018;-35
2022/04/19 05:35:12;;;;;;;16.55;9.30;;;;;;;8.80;64.81;101485.59;4994920;28;20080;-35
2022/04/19 05:37:38;;;;;;;15.52;9.25;;;;;;;8.85;65.42;101482.53;4996288;28;20533;-34
2022/04/19 05:40:04;;;;;;;14.10;8.80;;;;;;;8.82;66.12;101473.34;4996317;28;20028;-33
2022/04/19 05:42:30;;;;;;;16.83;8.85;;;;;;;8.87;65.45;101476.28;4995344;28;20077;-34
2022/04/19 05:44:55;;;;;;;15.00;8.90;;;;;;;8.99;65.77;101482.72;4996719;28;20050;-33
2022/04/19 05:47:21;;;;;;;16.63;9.27;;;;;;;9.13;64.58;101478.72;4995221;28;20030;-35
2022/04/19 05:49:46;;;;;;;12.95;9.13;;;;;;;9.15;64.91;101484.53;4996014;28;20045;-34
2022/04/19 05:52:11;;;;;;;17.10;9.75;;;;;;;9.33;64.85;101481.00;4994819;28;20366;-34
2022/04/19 05:54:37;;;;;;;14.52;8.98;;;;;;;9.42;64.77;101483.41;4996736;28;20448;-34
2022/04/19 05:57:02;;;;;;;14.90;9.52;;;;;;;9.74;64.64;101484.34;4995289;28;20026;-34
2022/04/19 05:59:27;;;;;;;15.40;9.68;;;;;;;10.25;63.57;101489.22;4996026;28;20061;-35
2022/04/19 06:04:52;;;;;;;20.95;10.40;;;;;;;15.21;46.24;101485.34;4996649;28;20374;-35
2022/04/19 06:07:18;;;;;;;18.13;10.65;;;;;;;15.61;46.53;101451.44;4996677;28;20065;-34
2022/04/19 06:09:44;;;;;;;25.92;11.90;;;;;;;16.29;44.75;101490.16;4995110;28;20124;-34
2022/04/19 06:12:09;;;;;;;26.42;13.30;;;;;;;17.14;40.64;101496.69;4996270;28;20022;-34
2022/04/19 06:14:35;;;;;;;29.52;13.13;;;;;;;18.44;37.28;101487.94;4995374;28;20055;-33
2022/04/19 06:17:00;;;;;;;23.67;13.38;;;;;;;17.23;38.81;101489.38;4996090;28;20030;-34
2022/04/19 06:19:27;;;;;;;27.83;14.23;;;;;;;17.40;39.12;101486.25;4996022;28;20077;-36
2022/04/19 06:21:52;;;;;;;26.92;13.82;;;;;;;17.77;38.51;101489.69;4996276;28;20032;-35
2022/04/19 06:24:18;;;;;;;31.35;14.98;;;;;;;18.23;38.08;101489.19;4996069;28;20026;-34
2022/04/19 06:26:44;;;;;;;28.88;14.00;;;;;;;18.49;36.91;101490.66;4996261;28;20050;-35
2022/04/19 06:29:09;;;;;;;23.45;13.23;;;;;;;18.43;36.53;101486.31;4994221;28;20081;-35
2022/04/19 06:31:34;;;;;;;25.02;12.85;;;;;;;18.36;36.56;101488.25;4995034;28;20026;-36
2022/04/19 06:34:00;;;;;;;25.77;11.70;;;;;;;17.64;38.31;101492.47;4994438;28;20554;-36
2022/04/19 06:36:25;;;;;;;21.20;12.02;;;;;;;19.25;34.21;101492.78;4994508;28;20030;-33
2022/04/19 06:38:50;;;;;;;21.63;11.45;;;;;;;19.83;34.13;101495.44;4992090;28;20030;-37
2022/04/19 06:41:16;;;;;;;21.40;11.20;;;;;;;19.93;33.70;101500.06;4993474;28;20073;-34
2022/04/19 06:43:41;;;;;;;21.02;10.70;;;;;;;20.65;32.30;101491.72;4994213;28;20033;-35
2022/04/19 06:46:08;;;;;;;16.40;10.20;;;;;;;21.00;30.22;101482.03;4994183;28;20026;-37
2022/04/19 06:48:34;;;;;;;17.15;10.10;;;;;;;20.42;30.81;101491.81;4993942;28;20049;-33
2022/04/19 06:51:00;;;;;;;17.42;9.60;;;;;;;20.44;31.24;101500.25;4994669;28;20117;-34
2022/04/19 06:53:29;;;;;;;19.17;9.95;;;;;;;20.45;31.28;101496.59;4994544;28;20031;-36
2022/04/19 06:55:58;;;;;;;14.45;9.57;;;;;;;20.61;30.37;101492.44;4993714;28;20030;-36
2022/04/19 06:58:23;;;;;;;19.42;9.75;;;;;;;20.77;30.61;101504.78;4993781;28;20076;-35
2022/04/19 07:00:48;;;;;;;17.88;10.25;;;;;;;21.00;30.83;101493.34;4993383;28;20030;-36
2022/04/19 07:03:14;;;;;;;12.55;9.32;;;;;;;21.99;29.84;101497.88;4993534;28;20026;-35
2022/04/19 07:05:39;;;;;;;16.23;9.02;;;;;;;21.53;30.11;101502.56;4993711;28;20030;-34
2022/04/19 07:08:07;;;;;;;14.02;8.80;;;;;;;20.59;30.04;101505.00;4992216;28;20113;-34
2022/04/19 07:10:33;;;;;;;17.42;9.10;;;;;;;20.19;30.51;101498.75;4993999;28;20084;-34
2022/04/19 07:12:59;;;;;;;14.00;9.25;;;;;;;22.16;28.28;101508.34;4999515;28;20038;-35
2022/04/19 07:15:24;;;;;;;16.90;9.25;;;;;;;23.13;27.29;101508.47;5013463;28;20457;-37
2022/04/19 07:17:50;;;;;;;14.23;8.93;;;;;;;23.76;26.83;101506.72;5013364;28;20217;-37
2022/04/19 07:28:27;;;;;;;14.75;9.05;;;;;;;23.79;25.54;101513.34;5014989;28;20499;-38
2022/04/19 07:30:53;;;;;;;14.82;8.90;;;;;;;23.33;26.12;101513.06;4997340;28;20022;-37
2022/04/19 07:33:18;;;;;;;13.85;9.45;;;;;;;23.50;26.57;101516.34;5014372;28;20168;-38
2022/04/19 07:35:44;;;;;;;13.27;8.35;;;;;;;23.97;25.74;101512.91;5014157;28;20030;-37
2022/04/19 07:38:10;;;;;;;15.00;8.60;;;;;;;23.00;27.69;101511.53;4997177;28;20042;-37
2022/04/19 07:40:36;;;;;;;13.13;8.55;;;;;;;24.02;25.87;101517.38;5014424;28;20097;-39
2022/04/19 07:43:02;;;;;;;11.85;8.23;;;;;;;23.71;26.26;101519.09;5014124;28;20022;-38
2022/04/19 07:45:28;;;;;;;19.88;8.30;;;;;;;24.23;25.61;101516.41;5014301;28;20100;-37
2022/04/19 07:47:54;;;;;;;12.65;8.35;;;;;;;23.84;27.09;101527.34;5014009;28;20033;-43
2022/04/19 07:50:19;;;;;;;13.32;7.97;;;;;;;24.96;26.02;101518.09;5014264;28;20030;-36
2022/04/19 07:52:45;;;;;;;12.30;7.38;;;;;;;24.87;24.91;101523.13;5013810;28;20461;-37
2022/04/19 07:55:10;;;;;;;12.13;7.88;;;;;;;25.49;24.64;101520.41;5014137;28;20037;-35
2022/04/19 07:57:35;;;;;;;13.00;7.55;;;;;;;24.63;25.21;101514.94;5014122;28;20022;-35
2022/04/19 08:00:01;;;;;;;11.32;7.20;;;;;;;25.84;24.51;101525.63;5013376;28;20038;-37
2022/04/19 08:02:28;;;;;;;11.68;7.38;;;;;;;25.23;25.02;101509.09;4996467;28;20053;-37
2022/04/19 08:04:54;;;;;;;12.18;7.07;;;;;;;25.01;26.50;101522.59;5014004;28;20420;-36
2022/04/19 08:07:20;;;;;;;15.23;7.80;;;;;;;24.80;25.75;101519.97;5013787;28;20026;-37
2022/04/19 08:09:46;;;;;;;13.82;8.30;;;;;;;24.37;27.90;101516.72;5013112;28;20060;-36
2022/04/19 08:12:11;;;;;;;12.80;7.35;;;;;;;24.49;27.12;101508.56;5013491;28;20061;-36
2022/04/19 08:14:37;;;;;;;10.32;6.90;;;;;;;22.65;29.59;101516.25;4979616;28;20436;-37
2022/04/19 08:17:02;;;;;;;10.82;7.22;;;;;;;22.81;28.91;101517.16;5013950;28;20029;-37
2022/04/19 08:19:28;;;;;;;11.32;6.80;;;;;;;23.52;28.36;101519.53;5013796;28;20140;-37
2022/04/19 08:21:53;;;;;;;13.38;7.28;;;;;;;21.62;30.41;101510.84;5013539;28;20381;-34
2022/04/19 08:24:18;;;;;;;12.75;7.60;;;;;;;21.58;31.31;101509.75;5013862;28;20018;-35
2022/04/19 08:26:44;;;;;;;11.38;7.07;;;;;;;21.70;30.24;101502.53;5012419;28;20615;-35
2022/04/19 08:29:11;;;;;;;11.57;6.50;;;;;;;19.98;31.59;101515.91;5013496;28;20037;-36
2022/04/19 08:31:36;;;;;;;10.38;7.20;;;;;;;20.60;32.16;101509.22;5013248;28;20026;-34
2022/04/19 08:34:02;;;;;;;11.32;7.00;;;;;;;21.33;32.59;101515.41;4995535;28;20032;-34
2022/04/19 08:36:27;;;;;;;13.75;6.75;;;;;;;21.02;31.89;101508.88;4995956;28;20030;-33
2022/04/19 08:38:52;;;;;;;11.75;7.13;;;;;;;21.11;32.55;101510.06;5013408;28;20036;-34
2022/04/19 08:41:18;;;;;;;13.18;7.25;;;;;;;21.05;30.92;101516.28;5013438;28;20519;-33
2022/04/19 08:43:45;;;;;;;11.05;6.15;;;;;;;19.62;32.38;101506.47;5013574;28;20037;-34
2022/04/19 08:46:11;;;;;;;9.50;6.70;;;;;;;20.50;32.10;101513.22;4996487;28;20484;-34
2022/04/19 08:48:38;;;;;;;12.35;6.70;;;;;;;20.24;32.18;101517.22;5014494;28;20022;-34
2022/04/19 08:51:07;;;;;;;11.30;6.47;;;;;;;21.01;31.41;101510.72;5013696;28;20465;-33
2022/04/19 08:59:06;;;;;;;10.57;6.45;;;;;;;20.94;32.09;101507.44;5014247;28;20132;-34
2022/04/19 09:01:31;;;;;;;9.73;6.75;;;;;;;22.05;31.44;101509.25;4995702;28;20040;-34
2022/04/19 09:03:57;;;;;;;13.13;7.22;;;;;;;21.87;30.65;101505.13;5013491;28;20018;-35
2022/04/19 09:06:48;;;;;;;10.48;6.80;;;;;;;21.72;31.23;101461.00;5013366;28;20381;-34
2022/04/19 09:09:13;;;;;;;14.40;6.82;;;;;;;21.71;31.29;101509.38;5013604;28;20040;-34
2022/04/19 09:11:38;;;;;;;11.10;6.97;;;;;;;21.43;31.43;101512.94;5012379;28;20117;-35
2022/04/19 09:14:07;;;;;;;13.02;6.75;;;;;;;22.19;30.44;101505.25;5013127;28;20073;-34
2022/04/19 09:16:32;;;;;;;10.52;6.60;;;;;;;21.88;32.35;101493.53;4995474;28;20380;-34
2022/04/19 09:18:58;;;;;;;10.52;6.28;;;;;;;22.72;29.49;101498.38;5013377;28;20026;-35
2022/04/19 09:21:40;;;;;;;10.80;6.40;;;;;;;22.48;28.43;101507.66;5013136;28;20026;-34
2022/04/19 09:24:19;;;;;;;9.73;5.47;;;;;;;21.23;28.48;101502.09;4995434;28;20021;-34
2022/04/19 09:26:45;;;;;;;9.07;5.63;;;;;;;20.86;28.83;101500.75;5013086;28;20021;-34
2022/04/19 09:29:22;;;;;;;9.05;5.30;;;;;;;21.67;28.19;101503.03;4995970;28;20110;-34
2022/04/19 09:31:52;;;;;;;11.40;5.72;;;;;;;21.35;27.15;101510.72;5013669;28;20105;-34
2022/04/19 09:34:28;;;;;;;11.40;5.70;;;;;;;21.24;28.98;101499.25;5013107;28;20422;-34
2022/04/19 09:37:07;;;;;;;8.30;5.05;;;;;;;21.45;28.42;101499.56;5012992;28;20029;-34
2022/04/19 09:39:36;;;;;;;9.55;5.13;;;;;;;20.98;28.01;101498.06;5013039;28;20029;-34
2022/04/19 09:42:08;;;;;;;8.80;5.00;;;;;;;21.90;27.27;101486.22;4996140;28;20030;-34
2022/04/19 09:44:49;;;;;;;7.78;4.68;;;;;;;21.81;26.29;101485.06;4980334;28;20076;-34
2022/04/19 09:47:14;;;;;;;11.85;5.20;;;;;;;20.75;27.87;101487.69;4999095;28;20029;-34
2022/04/19 09:49:48;;;;;;;11.70;5.25;;;;;;;21.82;29.65;101484.00;5016336;28;20021;-34
2022/04/19 09:52:20;;;;;;;8.68;4.72;;;;;;;22.08;27.50;101496.41;4983245;28;20103;-35
2022/04/19 09:54:59;;;;;;;12.85;5.60;;;;;;;21.13;27.56;101487.78;5016298;28;20033;-34
2022/04/19 09:57:25;;;;;;;8.20;4.80;;;;;;;22.51;26.54;101480.81;5016465;28;20333;-33
2022/04/19 09:59:52;;;;;;;8.68;4.88;;;;;;;22.26;25.81;101483.97;5016382;28;20186;-33
2022/04/19 10:10:31;;;;;;;8.75;5.10;;;;;;;22.78;26.10;101474.72;5016176;28;20051;-35
2022/04/19 10:12:58;;;;;;;9.27;5.35;;;;;;;22.46;25.66;101472.84;5015812;28;20459;-34
2022/04/19 10:15:23;;;;;;;9.00;5.50;;;;;;;21.43;26.20;101476.13;5015504;28;20049;-34
2022/04/19 10:17:49;;;;;;;9.38;4.95;;;;;;;20.86;27.02;101476.31;5015592;28;20022;-34
2022/04/19 10:20:15;;;;;;;9.00;5.30;;;;;;;21.29;26.34;101474.84;5015314;28;20121;-34
2022/04/19 10:22:48;;;;;;;10.32;5.28;;;;;;;21.19;26.50;101450.00;5015090;28;20052;-34
2022/04/19 10:25:14;;;;;;;8.25;5.20;;;;;;;21.89;26.35;101468.03;5015077;28;20083;-33
2022/04/19 10:27:39;;;;;;;9.68;5.80;;;;;;;20.69;28.10;101471.06;5015279;28;20501;-33
2022/04/19 10:30:06;;;;;;;9.50;5.75;;;;;;;20.92;28.24;101475.38;5014830;28;20060;-34
2022/04/19 10:32:35;;;;;;;13.68;5.20;;;;;;;21.84;27.79;101472.19;5014983;28;20040;-34
2022/04/19 10:35:02;;;;;;;7.72;4.95;;;;;;;21.58;26.02;101463.19;5014635;28;20104;-34
2022/04/19 10:37:29;;;;;;;13.27;4.95;;;;;;;22.20;27.08;101467.34;4995625;28;20393;-34
2022/04/19 10:40:03;;;;;;;9.00;5.40;;;;;;;22.18;25.68;101460.72;5013221;28;20026;-38
2022/04/19 10:42:39;;;;;;;9.10;5.25;;;;;;;21.78;26.62;101465.28;5014747;28;20030;-34
2022/04/19 10:45:14;;;;;;;9.48;5.35;;;;;;;23.05;26.50;101464.16;5013526;28;20056;-34
2022/04/19 10:47:51;;;;;;;11.05;5.47;;;;;;;22.79;26.15;101463.94;5014145;28;20030;-34
2022/04/19 10:50:25;;;;;;;8.52;5.35;;;;;;;23.05;25.53;101466.78;5013336;28;20030;-34
2022/04/19 10:52:51;;;;;;;11.95;5.32;;;;;;;22.41;26.29;101460.47;5013140;28;20022;-34
2022/04/19 10:55:17;;;;;;;10.30;5.05;;;;;;;21.53;26.93;101464.97;5012168;28;20041;-35
2022/04/19 10:58:26;;;;;;;9.27;5.03;;;;;;;22.17;26.73;101467.00;5012051;28;20033;-34
2022/04/19 11:00:47;;;;;;;16.83;8.88;;;;;;;22.40;26.46;101458.06;5009138;28;20038;-35
2022/04/19 11:03:39;;;;;;;15.45;5.43;;;;;;;23.08;25.79;101451.25;5013781;28;20029;-35
2022/04/19 11:06:10;;;;;;;10.00;5.10;;;;;;;22.58;25.67;101456.91;5002383;28;20365;-35
2022/04/19 11:08:37;;;;;;;10.35;5.15;;;;;;;21.51;27.96;101452.03;5014102;28;20029;-36
2022/04/19 11:11:02;;;;;;;11.50;5.60;;;;;;;22.33;27.08;101441.66;4980461;28;20026;-34
2022/04/19 11:13:38;;;;;;;8.77;5.07;;;;;;;21.97;27.73;101438.66;5013484;28;20053;-36
2022/04/19 11:16:06;;;;;;;12.68;5.88;;;;;;;23.22;26.57;101450.78;5013619;28;20269;-35
2022/04/19 11:18:54;;;;;;;11.63;5.22;;;;;;;23.12;27.27;101451.53;5014195;28;20479;-35
2022/04/19 11:21:53;;;;;;;8.68;4.90;;;;;;;22.66;25.90;101440.63;5013636;28;20033;-38
2022/04/19 11:24:56;;;;;;;13.45;5.63;;;;;;;21.90;27.96;101444.09;5014397;28;20037;-35
2022/04/19 11:27:22;;;;;;;12.13;5.70;;;;;;;22.54;27.70;101448.72;5012892;28;20116;-34
2022/04/19 11:29:49;;;;;;;10.85;5.57;;;;;;;22.88;26.75;101446.59;5013745;28;20452;-35
2022/04/19 11:32:23;;;;;;;11.40;5.60;;;;;;;22.86;27.95;101448.69;5013891;28;20508;-34
2022/04/19 11:35:02;;;;;;;8.60;5.00;;;;;;;23.02;27.01;101443.53;5013371;28;20435;-35
2022/04/19 11:37:32;;;;;;;11.13;5.38;;;;;;;23.07;27.06;101444.38;5013471;28;20041;-35
2022/04/19 11:48:26;;;;;;;11.05;5.50;;;;;;;23.12;26.63;101436.50;5014080;28;20053;-35
2022/04/19 11:50:52;;;;;;;12.20;5.90;;;;;;;22.92;26.19;101444.25;5014025;28;20041;-32
2022/04/19 11:53:20;;;;;;;11.70;5.85;;;;;;;22.74;27.90;101438.31;5011977;28;20026;-33
2022/04/19 11:55:59;;;;;;;11.70;5.03;;;;;;;22.80;27.37;101433.88;5013568;28;20026;-34
2022/04/19 11:58:24;;;;;;;12.55;5.65;;;;;;;23.34;26.56;101433.72;5013782;28;20029;-35
2022/04/19 12:01:03;;;;;;;10.40;5.63;;;;;;;23.35;27.72;101431.88;5013048;28;20048;-34
2022/04/19 12:03:32;;;;;;;8.50;4.93;;;;;;;23.17;26.57;101431.25;5012623;28;20029;-35
2022/04/19 12:06:07;;;;;;;13.63;5.05;;;;;;;23.76;26.00;101438.13;5011909;28;20021;-34
2022/04/19 12:08:41;;;;;;;8.93;4.88;;;;;;;23.81;26.25;101430.22;5011296;28;20445;-36